Time,TemperatureF,DewpointF,PressureIn,WindDirection,WindDirectionDegrees,WindSpeedMPH,WindSpeedGustMPH,Humidity,HourlyPrecipIn,Conditions,Clouds,dailyrainin,SoftwareType,DateUTC
2013-11-07 00:01:00,32.1,28.7,30.15,WNW,296,4.0,4.0,87,0.00,,,0.00,Wunderground v.1.15,2013-11-07 06:01:00,
2013-11-07 00:07:00,32.0,28.6,30.15,WNW,296,3.0,5.0,87,0.00,,,0.00,Wunderground v.1.15,2013-11-07 06:07:00,
2013-11-07 00:13:00,31.9,28.5,30.15,WNW,296,3.0,3.0,87,0.00,,,0.00,Wunderground v.1.15,2013-11-07 06:13:00,
2013-11-07 00:18:00,31.8,28.4,30.15,WNW,296,3.0,4.0,87,0.00,,,0.00,Wunderground v.1.15,2013-11-07 06:18:00,
2013-11-07 00:23:00,31.6,28.2,30.15,WNW,296,3.0,3.0,87,0.00,,,0.00,Wunderground v.1.15,2013-11-07 06:23:00,
2013-11-07 00:28:00,31.5,28.1,30.15,WNW,296,3.0,4.0,87,0.00,,,0.00,Wunderground v.1.15,2013-11-07 06:28:00,
2013-11-07 00:34:00,31.4,28.3,30.15,WNW,296,3.0,5.0,88,0.00,,,0.00,Wunderground v.1.15,2013-11-07 06:34:00,
2013-11-07 00:40:00,31.3,28.2,30.15,WNW,296,3.0,4.0,88,0.00,,,0.00,Wunderground v.1.15,2013-11-07 06:40:00,
2013-11-07 00:46:00,31.2,28.1,30.16,WNW,297,4.0,5.0,88,0.00,,,0.00,Wunderground v.1.15,2013-11-07 06:46:00,
2013-11-07 00:52:00,31.2,28.1,30.16,WNW,297,4.0,6.0,88,0.00,,,0.00,Wunderground v.1.15,2013-11-07 06:52:00,
2013-11-07 00:58:00,31.3,28.2,30.15,WNW,298,5.0,6.0,88,0.00,,,0.00,Wunderground v.1.15,2013-11-07 06:58:00,
2013-11-07 01:03:00,31.3,28.2,30.16,WNW,298,4.0,5.0,88,0.00,,,0.00,Wunderground v.1.15,2013-11-07 07:03:00,
2013-11-07 01:09:00,31.2,28.1,30.17,WNW,297,3.0,5.0,88,0.00,,,0.00,Wunderground v.1.15,2013-11-07 07:09:00,
2013-11-07 01:14:00,31.1,27.7,30.17,WNW,296,4.0,5.0,87,0.00,,,0.00,Wunderground v.1.15,2013-11-07 07:14:00,
2013-11-07 01:19:00,31.0,27.9,30.17,WNW,296,3.0,5.0,88,0.00,,,0.00,Wunderground v.1.15,2013-11-07 07:19:00,
2013-11-07 01:25:00,30.9,27.8,30.17,WNW,296,3.0,3.0,88,0.00,,,0.00,Wunderground v.1.15,2013-11-07 07:25:00,
2013-11-07 01:31:00,30.8,27.7,30.17,WNW,296,2.0,3.0,88,0.00,,,0.00,Wunderground v.1.15,2013-11-07 07:31:00,
2013-11-07 01:36:00,30.7,27.6,30.17,WNW,296,2.0,3.0,88,0.00,,,0.00,Wunderground v.1.15,2013-11-07 07:36:00,
2013-11-07 01:42:00,30.6,27.5,30.17,WNW,296,2.0,3.0,88,0.00,,,0.00,Wunderground v.1.15,2013-11-07 07:42:00,
2013-11-07 01:48:00,30.5,27.4,30.17,WNW,296,2.0,4.0,88,0.00,,,0.00,Wunderground v.1.15,2013-11-07 07:48:00,
2013-11-07 01:53:00,30.5,27.4,30.17,WNW,296,3.0,3.0,88,0.00,,,0.00,Wunderground v.1.15,2013-11-07 07:53:00,
2013-11-07 01:59:00,30.4,27.3,30.17,WNW,295,3.0,4.0,88,0.00,,,0.00,Wunderground v.1.15,2013-11-07 07:59:00,
2013-11-07 02:04:00,30.4,27.3,30.17,WNW,294,3.0,3.0,88,0.00,,,0.00,Wunderground v.1.15,2013-11-07 08:04:00,
2013-11-07 02:09:00,30.3,27.2,30.17,WNW,294,3.0,4.0,88,0.00,,,0.00,Wunderground v.1.15,2013-11-07 08:09:00,
2013-11-07 02:14:00,30.2,27.3,30.17,WNW,292,3.0,3.0,89,0.00,,,0.00,Wunderground v.1.15,2013-11-07 08:14:00,
2013-11-07 02:19:00,30.1,27.3,30.17,WNW,292,3.0,4.0,89,0.00,,,0.00,Wunderground v.1.15,2013-11-07 08:19:00,
2013-11-07 02:25:00,30.2,27.3,30.17,WNW,292,3.0,4.0,89,0.00,,,0.00,Wunderground v.1.15,2013-11-07 08:25:00,
2013-11-07 02:31:00,30.3,27.4,30.18,WNW,292,3.0,3.0,89,0.00,,,0.00,Wunderground v.1.15,2013-11-07 08:31:00,
2013-11-07 02:37:00,30.2,27.1,30.18,WNW,292,3.0,5.0,88,0.00,,,0.00,Wunderground v.1.15,2013-11-07 08:37:00,
2013-11-07 02:42:00,30.2,27.1,30.18,WNW,292,3.0,4.0,88,0.00,,,0.00,Wunderground v.1.15,2013-11-07 08:42:00,
2013-11-07 02:47:00,30.2,27.1,30.18,WNW,292,3.0,4.0,88,0.00,,,0.00,Wunderground v.1.15,2013-11-07 08:47:00,
2013-11-07 02:53:00,30.2,27.1,30.18,WNW,292,3.0,3.0,88,0.00,,,0.00,Wunderground v.1.15,2013-11-07 08:53:00,
2013-11-07 02:59:00,30.1,27.0,30.18,WNW,292,3.0,4.0,88,0.00,,,0.00,Wunderground v.1.15,2013-11-07 08:59:00,
2013-11-07 03:05:00,30.2,27.1,30.18,WNW,292,3.0,3.0,88,0.00,,,0.00,Wunderground v.1.15,2013-11-07 09:05:00,
2013-11-07 03:11:00,30.2,27.1,30.18,WNW,291,3.0,3.0,88,0.00,,,0.00,Wunderground v.1.15,2013-11-07 09:11:00,
2013-11-07 03:17:00,30.2,27.1,30.18,WNW,291,2.0,3.0,88,0.00,,,0.00,Wunderground v.1.15,2013-11-07 09:17:00,
2013-11-07 03:22:00,30.1,27.0,30.18,WNW,291,2.0,3.0,88,0.00,,,0.00,Wunderground v.1.15,2013-11-07 09:22:00,
2013-11-07 03:28:00,30.1,27.0,30.18,WNW,291,1.0,3.0,88,0.00,,,0.00,Wunderground v.1.15,2013-11-07 09:28:00,
2013-11-07 03:34:00,30.2,27.1,30.18,WNW,291,1.0,1.0,88,0.00,,,0.00,Wunderground v.1.15,2013-11-07 09:34:00,
2013-11-07 03:40:00,30.2,27.1,30.18,WNW,291,0.0,0.0,88,0.00,,,0.00,Wunderground v.1.15,2013-11-07 09:40:00,
2013-11-07 03:46:00,30.4,27.3,30.18,WNW,291,1.0,3.0,88,0.00,,,0.00,Wunderground v.1.15,2013-11-07 09:46:00,
2013-11-07 03:51:00,30.7,27.3,30.18,WNW,291,3.0,4.0,87,0.00,,,0.00,Wunderground v.1.15,2013-11-07 09:51:00,
2013-11-07 03:57:00,31.0,27.6,30.18,West,276,5.0,5.0,87,0.00,,,0.00,Wunderground v.1.15,2013-11-07 09:57:00,
2013-11-07 04:03:00,30.8,27.1,30.18,WSW,252,5.0,6.0,86,0.00,,,0.00,Wunderground v.1.15,2013-11-07 10:03:00,
2013-11-07 04:08:00,30.4,27.0,30.18,WSW,239,6.0,6.0,87,0.00,,,0.00,Wunderground v.1.15,2013-11-07 10:08:00,
2013-11-07 04:14:00,29.8,26.7,30.18,SW,234,6.0,6.0,88,0.00,,,0.00,Wunderground v.1.15,2013-11-07 10:14:00,
2013-11-07 04:19:00,29.4,26.6,30.18,SW,233,5.0,6.0,89,0.00,,,0.00,Wunderground v.1.15,2013-11-07 10:19:00,
2013-11-07 04:24:00,29.4,26.8,30.18,SW,232,5.0,6.0,90,0.00,,,0.00,Wunderground v.1.15,2013-11-07 10:24:00,
2013-11-07 04:30:00,29.3,27.0,30.19,SW,232,6.0,6.0,91,0.00,,,0.00,Wunderground v.1.15,2013-11-07 10:30:00,
2013-11-07 04:35:00,29.3,26.7,30.19,SW,232,6.0,7.0,90,0.00,,,0.00,Wunderground v.1.15,2013-11-07 10:35:00,
2013-11-07 04:41:00,29.1,26.8,30.19,SW,232,6.0,6.0,91,0.00,,,0.00,Wunderground v.1.15,2013-11-07 10:41:00,
2013-11-07 04:46:00,28.9,26.6,30.19,SW,232,6.0,6.0,91,0.00,,,0.00,Wunderground v.1.15,2013-11-07 10:46:00,
2013-11-07 04:51:00,28.9,26.6,30.19,SW,232,6.0,6.0,91,0.00,,,0.00,Wunderground v.1.15,2013-11-07 10:51:00,
2013-11-07 04:57:00,28.8,26.5,30.20,SW,232,5.0,6.0,91,0.00,,,0.00,Wunderground v.1.15,2013-11-07 10:57:00,
2013-11-07 05:03:00,28.7,26.4,30.19,SW,232,5.0,6.0,91,0.00,,,0.00,Wunderground v.1.15,2013-11-07 11:03:00,
2013-11-07 05:08:00,28.6,26.3,30.19,SW,232,5.0,6.0,91,0.00,,,0.00,Wunderground v.1.15,2013-11-07 11:08:00,
2013-11-07 05:14:00,28.6,26.3,30.19,SW,232,4.0,5.0,91,0.00,,,0.00,Wunderground v.1.15,2013-11-07 11:14:00,
2013-11-07 05:20:00,28.7,26.4,30.19,SW,232,4.0,4.0,91,0.00,,,0.00,Wunderground v.1.15,2013-11-07 11:20:00,
2013-11-07 05:26:00,28.7,26.4,30.19,SW,232,3.0,4.0,91,0.00,,,0.00,Wunderground v.1.15,2013-11-07 11:26:00,
2013-11-07 05:32:00,28.7,26.4,30.18,SW,232,4.0,5.0,91,0.00,,,0.00,Wunderground v.1.15,2013-11-07 11:32:00,
2013-11-07 05:34:00,28.7,26.4,30.19,SW,232,4.0,5.0,91,0.00,,,0.00,Wunderground v.1.15,2013-11-07 11:34:00,
2013-11-07 05:39:00,28.7,26.4,30.19,SW,232,4.0,5.0,91,0.00,,,0.00,Wunderground v.1.15,2013-11-07 11:39:00,
2013-11-07 05:44:00,28.7,26.4,30.19,SW,232,5.0,5.0,91,0.00,,,0.00,Wunderground v.1.15,2013-11-07 11:44:00,
2013-11-07 05:50:00,28.7,26.4,30.19,SW,232,4.0,4.0,91,0.00,,,0.00,Wunderground v.1.15,2013-11-07 11:50:00,
2013-11-07 05:56:00,28.8,26.5,30.19,SW,232,3.0,4.0,91,0.00,,,0.00,Wunderground v.1.15,2013-11-07 11:56:00,
2013-11-07 06:02:00,28.8,26.5,30.19,SW,232,4.0,4.0,91,0.00,,,0.00,Wunderground v.1.15,2013-11-07 12:02:00,
2013-11-07 06:07:00,28.8,26.5,30.19,SW,232,4.0,4.0,91,0.00,,,0.00,Wunderground v.1.15,2013-11-07 12:07:00,
2013-11-07 06:12:00,28.8,26.5,30.20,SW,232,4.0,4.0,91,0.00,,,0.00,Wunderground v.1.15,2013-11-07 12:12:00,
2013-11-07 06:18:00,28.7,26.4,30.19,SW,232,4.0,4.0,91,0.00,,,0.00,Wunderground v.1.15,2013-11-07 12:18:00,
2013-11-07 06:24:00,28.7,26.4,30.20,SW,232,4.0,4.0,91,0.00,,,0.00,Wunderground v.1.15,2013-11-07 12:24:00,
2013-11-07 06:30:00,28.6,26.3,30.20,SW,232,5.0,6.0,91,0.00,,,0.00,Wunderground v.1.15,2013-11-07 12:30:00,
2013-11-07 06:36:00,28.3,26.0,30.20,SW,232,6.0,6.0,91,0.00,,,0.00,Wunderground v.1.15,2013-11-07 12:36:00,
2013-11-07 06:42:00,28.3,26.3,30.20,SW,232,5.0,6.0,92,0.00,,,0.00,Wunderground v.1.15,2013-11-07 12:42:00,
2013-11-07 06:47:00,28.3,26.3,30.20,SW,229,5.0,6.0,92,0.00,,,0.00,Wunderground v.1.15,2013-11-07 12:47:00,
2013-11-07 06:52:00,28.5,26.5,30.20,SW,227,6.0,7.0,92,0.00,,,0.00,Wunderground v.1.15,2013-11-07 12:52:00,
2013-11-07 06:57:00,28.6,26.6,30.20,SW,224,7.0,9.0,92,0.00,,,0.00,Wunderground v.1.15,2013-11-07 12:57:00,
2013-11-07 07:03:00,28.6,26.6,30.21,SW,222,8.0,8.0,92,0.00,,,0.00,Wunderground v.1.15,2013-11-07 13:03:00,
2013-11-07 07:09:00,28.8,26.5,30.21,SW,222,7.0,9.0,91,0.00,,,0.00,Wunderground v.1.15,2013-11-07 13:09:00,
2013-11-07 07:14:00,28.8,26.5,30.21,SW,222,6.0,7.0,91,0.00,,,0.00,Wunderground v.1.15,2013-11-07 13:14:00,
2013-11-07 07:20:00,28.9,26.6,30.21,SW,221,5.0,5.0,91,0.00,,,0.00,Wunderground v.1.15,2013-11-07 13:20:00,
2013-11-07 07:25:00,28.9,26.9,30.22,SW,221,5.0,6.0,92,0.00,,,0.00,Wunderground v.1.15,2013-11-07 13:25:00,
2013-11-07 07:31:00,29.2,27.2,30.22,SW,221,6.0,9.0,92,0.00,,,0.00,Wunderground v.1.15,2013-11-07 13:31:00,
2013-11-07 07:37:00,29.5,27.5,30.22,SW,225,8.0,10.0,92,0.00,,,0.00,Wunderground v.1.15,2013-11-07 13:37:00,
2013-11-07 07:43:00,29.8,27.8,30.22,SW,223,9.0,10.0,92,0.00,,,0.00,Wunderground v.1.15,2013-11-07 13:43:00,
2013-11-07 07:49:00,30.1,27.8,30.22,SW,222,10.0,11.0,91,0.00,,,0.00,Wunderground v.1.15,2013-11-07 13:49:00,
2013-11-07 07:55:00,30.4,28.1,30.23,SW,223,9.0,11.0,91,0.00,,,0.00,Wunderground v.1.15,2013-11-07 13:55:00,
2013-11-07 08:00:00,30.8,28.5,30.23,SW,222,9.0,9.0,91,0.00,,,0.00,Wunderground v.1.15,2013-11-07 14:00:00,
2013-11-07 08:05:00,31.1,28.8,30.23,SW,221,8.0,10.0,91,0.00,,,0.00,Wunderground v.1.15,2013-11-07 14:05:00,
2013-11-07 08:10:00,31.4,28.8,30.23,SW,219,7.0,9.0,90,0.00,,,0.00,Wunderground v.1.15,2013-11-07 14:10:00,
2013-11-07 08:16:00,31.8,29.2,30.23,SW,221,9.0,12.0,90,0.00,,,0.00,Wunderground v.1.15,2013-11-07 14:16:00,
2013-11-07 08:22:00,32.0,29.1,30.23,SW,221,11.0,12.0,89,0.00,,,0.00,Wunderground v.1.15,2013-11-07 14:22:00,
2013-11-07 08:27:00,32.5,29.9,30.23,SW,221,10.0,12.0,90,0.00,,,0.00,Wunderground v.1.15,2013-11-07 14:27:00,
2013-11-07 08:33:00,33.2,30.3,30.23,SW,223,10.0,11.0,89,0.00,,,0.00,Wunderground v.1.15,2013-11-07 14:33:00,
2013-11-07 08:39:00,33.5,30.3,30.23,SW,222,11.0,13.0,88,0.00,,,0.00,Wunderground v.1.15,2013-11-07 14:39:00,
2013-11-07 08:45:00,34.0,30.5,30.23,SW,225,12.0,14.0,87,0.00,,,0.00,Wunderground v.1.15,2013-11-07 14:45:00,
2013-11-07 08:50:00,34.4,31.2,30.23,SW,223,11.0,11.0,88,0.00,,,0.00,Wunderground v.1.15,2013-11-07 14:50:00,
2013-11-07 08:56:00,35.0,31.8,30.23,SW,224,11.0,14.0,88,0.00,,,0.00,Wunderground v.1.15,2013-11-07 14:56:00,
2013-11-07 09:01:00,35.3,31.5,30.22,SW,227,12.0,12.0,86,0.00,,,0.00,Wunderground v.1.15,2013-11-07 15:01:00,
2013-11-07 09:06:00,35.6,31.8,30.22,SW,225,12.0,13.0,86,0.00,,,0.00,Wunderground v.1.15,2013-11-07 15:06:00,
2013-11-07 09:11:00,35.8,31.7,30.22,SW,221,11.0,12.0,85,0.00,,,0.00,Wunderground v.1.15,2013-11-07 15:11:00,
2013-11-07 09:17:00,36.0,32.2,30.22,SW,222,11.0,13.0,86,0.00,,,0.00,Wunderground v.1.15,2013-11-07 15:17:00,
2013-11-07 09:22:00,36.1,32.3,30.22,SW,223,11.0,11.0,86,0.00,,,0.00,Wunderground v.1.15,2013-11-07 15:22:00,
2013-11-07 09:28:00,36.3,32.2,30.22,SW,225,10.0,12.0,85,0.00,,,0.00,Wunderground v.1.15,2013-11-07 15:28:00,
2013-11-07 09:34:00,36.5,32.4,30.21,SW,225,10.0,10.0,85,0.00,,,0.00,Wunderground v.1.15,2013-11-07 15:34:00,
2013-11-07 09:40:00,36.9,32.8,30.21,SW,232,10.0,12.0,85,0.00,,,0.00,Wunderground v.1.15,2013-11-07 15:40:00,
2013-11-07 09:45:00,37.3,32.9,30.21,SW,222,10.0,12.0,84,0.00,,,0.00,Wunderground v.1.15,2013-11-07 15:45:00,
2013-11-07 09:51:00,37.7,33.3,30.22,SW,224,10.0,14.0,84,0.00,,,0.00,Wunderground v.1.15,2013-11-07 15:51:00,
2013-11-07 09:56:00,38.0,33.3,30.22,SW,225,12.0,15.0,83,0.00,,,0.00,Wunderground v.1.15,2013-11-07 15:56:00,
2013-11-07 10:01:00,38.4,34.0,30.21,SW,234,14.0,15.0,84,0.00,,,0.00,Wunderground v.1.15,2013-11-07 16:01:00,
2013-11-07 10:07:00,38.8,34.7,30.21,SW,227,13.0,15.0,85,0.00,,,0.00,Wunderground v.1.15,2013-11-07 16:07:00,
2013-11-07 10:13:00,39.1,34.4,30.21,WSW,244,12.0,16.0,83,0.00,,,0.00,Wunderground v.1.15,2013-11-07 16:13:00,
2013-11-07 10:19:00,39.3,34.6,30.20,SW,235,12.0,16.0,83,0.00,,,0.00,Wunderground v.1.15,2013-11-07 16:19:00,
2013-11-07 10:24:00,39.5,34.8,30.20,SW,231,11.0,16.0,83,0.00,,,0.00,Wunderground v.1.15,2013-11-07 16:24:00,
2013-11-07 10:29:00,39.5,34.5,30.20,SW,236,13.0,20.0,82,0.00,,,0.00,Wunderground v.1.15,2013-11-07 16:29:00,
2013-11-07 10:35:00,39.6,34.6,30.20,SW,227,15.0,17.0,82,0.00,,,0.00,Wunderground v.1.15,2013-11-07 16:35:00,
2013-11-07 10:41:00,40.1,35.7,30.20,WSW,238,14.0,14.0,84,0.00,,,0.00,Wunderground v.1.15,2013-11-07 16:41:00,
2013-11-07 10:47:00,40.5,35.7,30.20,SW,228,14.0,19.0,83,0.00,,,0.00,Wunderground v.1.15,2013-11-07 16:47:00,
2013-11-07 10:52:00,40.6,35.8,30.20,SW,222,15.0,20.0,83,0.00,,,0.00,Wunderground v.1.15,2013-11-07 16:52:00,
2013-11-07 10:58:00,41.1,36.3,30.19,SW,234,16.0,20.0,83,0.00,,,0.00,Wunderground v.1.15,2013-11-07 16:58:00,
2013-11-07 11:04:00,41.5,36.4,30.19,SW,231,16.0,18.0,82,0.00,,,0.00,Wunderground v.1.15,2013-11-07 17:04:00,
2013-11-07 11:09:00,41.7,36.9,30.18,WSW,238,15.0,21.0,83,0.00,,,0.00,Wunderground v.1.15,2013-11-07 17:09:00,
2013-11-07 11:15:00,42.2,37.4,30.19,SW,236,16.0,24.0,83,0.00,,,0.00,Wunderground v.1.15,2013-11-07 17:15:00,
2013-11-07 11:21:00,42.8,37.7,30.18,WSW,243,16.0,16.0,82,0.00,,,0.00,Wunderground v.1.15,2013-11-07 17:21:00,
2013-11-07 11:26:00,43.2,38.4,30.18,WSW,252,15.0,18.0,83,0.00,,,0.00,Wunderground v.1.15,2013-11-07 17:26:00,
2013-11-07 11:31:00,43.6,38.8,30.18,West,261,14.0,15.0,83,0.00,,,0.00,Wunderground v.1.15,2013-11-07 17:31:00,
2013-11-07 11:37:00,44.1,39.3,30.18,SW,236,13.0,21.0,83,0.00,,,0.00,Wunderground v.1.15,2013-11-07 17:37:00,
2013-11-07 11:43:00,44.2,38.1,30.18,SW,226,16.0,23.0,79,0.00,,,0.00,Wunderground v.1.15,2013-11-07 17:43:00,
2013-11-07 11:49:00,43.8,38.7,30.17,WSW,240,19.0,23.0,82,0.00,,,0.00,Wunderground v.1.15,2013-11-07 17:49:00,
2013-11-07 11:54:00,44.1,38.3,30.17,WSW,249,18.0,19.0,80,0.00,,,0.00,Wunderground v.1.15,2013-11-07 17:54:00,
2013-11-07 11:59:00,44.9,40.0,30.17,WSW,251,15.0,19.0,83,0.00,,,0.00,Wunderground v.1.15,2013-11-07 17:59:00,
2013-11-07 12:05:00,44.6,38.5,30.17,WSW,239,13.0,16.0,79,0.00,,,0.00,Wunderground v.1.15,2013-11-07 18:05:00,
2013-11-07 12:11:00,44.7,39.2,30.16,WSW,251,14.0,14.0,81,0.00,,,0.00,Wunderground v.1.15,2013-11-07 18:11:00,
2013-11-07 12:16:00,45.1,39.3,30.16,WSW,244,16.0,17.0,80,0.00,,,0.00,Wunderground v.1.15,2013-11-07 18:16:00,
2013-11-07 12:21:00,45.7,38.9,30.16,West,259,15.0,16.0,77,0.00,,,0.00,Wunderground v.1.15,2013-11-07 18:21:00,
2013-11-07 12:27:00,45.7,37.5,30.16,WNW,285,15.0,19.0,73,0.00,,,0.00,Wunderground v.1.15,2013-11-07 18:27:00,
2013-11-07 12:33:00,45.9,39.1,30.16,WNW,298,14.0,15.0,77,0.00,,,0.00,Wunderground v.1.15,2013-11-07 18:33:00,
2013-11-07 12:39:00,45.9,37.4,30.16,WSW,252,13.0,16.0,72,0.00,,,0.00,Wunderground v.1.15,2013-11-07 18:39:00,
2013-11-07 12:45:00,45.3,36.4,30.16,WNW,287,13.0,19.0,71,0.00,,,0.00,Wunderground v.1.15,2013-11-07 18:45:00,
2013-11-07 12:50:00,44.7,36.9,30.16,WNW,298,14.0,14.0,74,0.00,,,0.00,Wunderground v.1.15,2013-11-07 18:50:00,
2013-11-07 12:55:00,44.0,36.2,30.17,WNW,293,13.0,15.0,74,0.00,,,0.00,Wunderground v.1.15,2013-11-07 18:55:00,
2013-11-07 13:01:00,43.6,36.9,30.17,WNW,288,13.0,17.0,77,0.00,,,0.00,Wunderground v.1.15,2013-11-07 19:01:00,
2013-11-07 13:06:00,43.2,36.5,30.16,WNW,300,15.0,26.0,77,0.00,,,0.00,Wunderground v.1.15,2013-11-07 19:06:00,
2013-11-07 13:11:00,42.2,36.2,30.16,NW,315,18.0,21.0,79,0.00,,,0.00,Wunderground v.1.15,2013-11-07 19:11:00,
2013-11-07 13:16:00,41.4,36.0,30.17,WNW,288,19.0,27.0,81,0.00,,,0.00,Wunderground v.1.15,2013-11-07 19:16:00,
2013-11-07 13:22:00,41.0,35.0,30.17,NW,307,19.0,23.0,79,0.00,,,0.00,Wunderground v.1.15,2013-11-07 19:22:00,
2013-11-07 13:28:00,40.0,34.0,30.17,WNW,300,20.0,27.0,79,0.00,,,0.00,Wunderground v.1.15,2013-11-07 19:28:00,
2013-11-07 13:34:00,39.8,34.1,30.17,NW,326,22.0,22.0,80,0.00,,,0.00,Wunderground v.1.15,2013-11-07 19:34:00,
2013-11-07 13:39:00,39.8,34.1,30.18,WNW,300,21.0,27.0,80,0.00,,,0.00,Wunderground v.1.15,2013-11-07 19:39:00,
2013-11-07 13:45:00,39.6,34.2,30.18,NW,306,19.0,21.0,81,0.00,,,0.00,Wunderground v.1.15,2013-11-07 19:45:00,
2013-11-07 13:51:00,38.9,33.9,30.18,NW,308,18.0,19.0,82,0.00,,,0.00,Wunderground v.1.15,2013-11-07 19:51:00,
2013-11-07 13:57:00,38.3,33.0,30.18,NW,309,19.0,20.0,81,0.00,,,0.00,Wunderground v.1.15,2013-11-07 19:57:00,
2013-11-07 14:02:00,38.0,33.0,30.17,WNW,302,17.0,18.0,82,0.00,,,0.00,Wunderground v.1.15,2013-11-07 20:02:00,
2013-11-07 14:07:00,38.1,33.1,30.18,NW,307,15.0,18.0,82,0.00,,,0.00,Wunderground v.1.15,2013-11-07 20:07:00,
2013-11-07 14:12:00,38.6,33.9,30.18,NW,320,14.0,17.0,83,0.00,,,0.00,Wunderground v.1.15,2013-11-07 20:12:00,
2013-11-07 14:17:00,39.2,34.2,30.18,NW,314,16.0,22.0,82,0.00,,,0.00,Wunderground v.1.15,2013-11-07 20:17:00,
2013-11-07 14:22:00,39.5,33.8,30.18,NW,307,18.0,19.0,80,0.00,,,0.00,Wunderground v.1.15,2013-11-07 20:22:00,
2013-11-07 14:28:00,40.0,34.0,30.17,NW,304,18.0,20.0,79,0.00,,,0.00,Wunderground v.1.15,2013-11-07 20:28:00,
2013-11-07 14:34:00,40.0,34.0,30.18,NW,319,18.0,21.0,79,0.00,,,0.00,Wunderground v.1.15,2013-11-07 20:34:00,
2013-11-07 14:39:00,40.4,34.4,30.18,NW,315,16.0,21.0,79,0.00,,,0.00,Wunderground v.1.15,2013-11-07 20:39:00,
2013-11-07 14:45:00,40.9,34.9,30.18,NW,304,16.0,17.0,79,0.00,,,0.00,Wunderground v.1.15,2013-11-07 20:45:00,
2013-11-07 14:50:00,41.1,34.1,30.18,WNW,300,17.0,17.0,76,0.00,,,0.00,Wunderground v.1.15,2013-11-07 20:50:00,
2013-11-07 14:56:00,41.1,34.4,30.18,NW,313,18.0,22.0,77,0.00,,,0.00,Wunderground v.1.15,2013-11-07 20:56:00,
2013-11-07 15:02:00,41.1,34.4,30.18,NW,309,17.0,17.0,77,0.00,,,0.00,Wunderground v.1.15,2013-11-07 21:02:00,
2013-11-07 15:07:00,41.2,34.2,30.18,NW,326,17.0,20.0,76,0.00,,,0.00,Wunderground v.1.15,2013-11-07 21:07:00,
2013-11-07 15:13:00,41.1,34.4,30.18,NW,309,19.0,24.0,77,0.00,,,0.00,Wunderground v.1.15,2013-11-07 21:13:00,
2013-11-07 15:19:00,41.3,34.3,30.19,NW,304,19.0,24.0,76,0.00,,,0.00,Wunderground v.1.15,2013-11-07 21:19:00,
2013-11-07 15:25:00,41.2,34.5,30.19,WNW,302,18.0,23.0,77,0.00,,,0.00,Wunderground v.1.15,2013-11-07 21:25:00,
2013-11-07 15:30:00,41.2,34.2,30.18,NW,315,16.0,16.0,76,0.00,,,0.00,Wunderground v.1.15,2013-11-07 21:30:00,
2013-11-07 15:35:00,41.2,34.5,30.19,NW,305,14.0,17.0,77,0.00,,,0.00,Wunderground v.1.15,2013-11-07 21:35:00,
2013-11-07 15:40:00,41.3,34.3,30.19,NW,310,15.0,20.0,76,0.00,,,0.00,Wunderground v.1.15,2013-11-07 21:40:00,
2013-11-07 15:46:00,41.3,34.6,30.19,WNW,284,15.0,20.0,77,0.00,,,0.00,Wunderground v.1.15,2013-11-07 21:46:00,
2013-11-07 15:52:00,41.3,34.3,30.19,WNW,288,11.0,12.0,76,0.00,,,0.00,Wunderground v.1.15,2013-11-07 21:52:00,
2013-11-07 15:58:00,41.3,34.3,30.19,WNW,294,11.0,17.0,76,0.00,,,0.00,Wunderground v.1.15,2013-11-07 21:58:00,
2013-11-07 16:04:00,41.3,34.3,30.19,WNW,298,12.0,12.0,76,0.00,,,0.00,Wunderground v.1.15,2013-11-07 22:04:00,
2013-11-07 16:09:00,41.2,34.2,30.19,NW,307,10.0,12.0,76,0.00,,,0.00,Wunderground v.1.15,2013-11-07 22:09:00,
2013-11-07 16:15:00,41.1,34.1,30.20,WNW,294,8.0,9.0,76,0.00,,,0.00,Wunderground v.1.15,2013-11-07 22:15:00,
2013-11-07 16:21:00,40.9,34.2,30.20,WNW,297,7.0,7.0,77,0.00,,,0.00,Wunderground v.1.15,2013-11-07 22:21:00,
2013-11-07 16:27:00,40.6,34.0,30.19,WNW,297,7.0,10.0,77,0.00,,,0.00,Wunderground v.1.15,2013-11-07 22:27:00,
2013-11-07 16:32:00,40.4,34.1,30.19,WNW,298,6.0,6.0,78,0.00,,,0.00,Wunderground v.1.15,2013-11-07 22:32:00,
2013-11-07 16:38:00,40.1,33.8,30.19,WNW,296,5.0,6.0,78,0.00,,,0.00,Wunderground v.1.15,2013-11-07 22:38:00,
2013-11-07 16:44:00,39.6,33.6,30.20,WNW,294,4.0,5.0,79,0.00,,,0.00,Wunderground v.1.15,2013-11-07 22:44:00,
2013-11-07 16:50:00,39.1,33.1,30.20,WNW,294,4.0,4.0,79,0.00,,,0.00,Wunderground v.1.15,2013-11-07 22:50:00,
2013-11-07 16:56:00,38.6,33.0,30.20,WNW,294,3.0,4.0,80,0.00,,,0.00,Wunderground v.1.15,2013-11-07 22:56:00,
2013-11-07 17:01:00,38.2,32.9,30.20,WNW,294,3.0,3.0,81,0.00,,,0.00,Wunderground v.1.15,2013-11-07 23:01:00,
2013-11-07 17:06:00,38.1,33.1,30.20,WNW,292,3.0,3.0,82,0.00,,,0.00,Wunderground v.1.15,2013-11-07 23:06:00,
2013-11-07 17:12:00,38.2,33.2,30.20,WNW,290,3.0,3.0,82,0.00,,,0.00,Wunderground v.1.15,2013-11-07 23:12:00,
2013-11-07 17:18:00,38.2,32.9,30.20,WNW,288,3.0,4.0,81,0.00,,,0.00,Wunderground v.1.15,2013-11-07 23:18:00,
2013-11-07 17:24:00,37.6,32.3,30.20,WNW,284,3.0,4.0,81,0.00,,,0.00,Wunderground v.1.15,2013-11-07 23:24:00,
2013-11-07 17:30:00,37.4,32.4,30.20,West,270,4.0,4.0,82,0.00,,,0.00,Wunderground v.1.15,2013-11-07 23:30:00,
2013-11-07 17:35:00,37.3,32.3,30.20,West,269,4.0,5.0,82,0.00,,,0.00,Wunderground v.1.15,2013-11-07 23:35:00,
2013-11-07 17:41:00,37.2,32.5,30.21,West,269,3.0,4.0,83,0.00,,,0.00,Wunderground v.1.15,2013-11-07 23:41:00,
2013-11-07 17:47:00,37.4,32.4,30.21,West,269,4.0,5.0,82,0.00,,,0.00,Wunderground v.1.15,2013-11-07 23:47:00,
2013-11-07 17:52:00,37.4,32.4,30.21,West,269,4.0,4.0,82,0.00,,,0.00,Wunderground v.1.15,2013-11-07 23:52:00,
2013-11-07 17:58:00,37.1,32.1,30.21,West,269,3.0,4.0,82,0.00,,,0.00,Wunderground v.1.15,2013-11-07 23:58:00,
2013-11-07 18:04:00,36.8,32.1,30.21,West,269,3.0,4.0,83,0.00,,,0.00,Wunderground v.1.15,2013-11-08 00:04:00,
2013-11-07 18:09:00,36.6,32.2,30.21,West,269,3.0,4.0,84,0.00,,,0.00,Wunderground v.1.15,2013-11-08 00:09:00,
2013-11-07 18:14:00,36.8,32.4,30.21,West,267,4.0,5.0,84,0.00,,,0.00,Wunderground v.1.15,2013-11-08 00:14:00,
2013-11-07 18:20:00,37.1,32.4,30.21,West,265,5.0,5.0,83,0.00,,,0.00,Wunderground v.1.15,2013-11-08 00:20:00,
2013-11-07 18:26:00,37.3,32.6,30.21,West,265,5.0,5.0,83,0.00,,,0.00,Wunderground v.1.15,2013-11-08 00:26:00,
2013-11-07 18:32:00,37.3,32.6,30.21,WSW,248,5.0,7.0,83,0.00,,,0.00,Wunderground v.1.15,2013-11-08 00:32:00,
2013-11-07 18:37:00,37.4,32.4,30.21,WSW,246,6.0,7.0,82,0.00,,,0.00,Wunderground v.1.15,2013-11-08 00:37:00,
2013-11-07 18:43:00,37.4,32.4,30.21,WSW,244,7.0,7.0,82,0.00,,,0.00,Wunderground v.1.15,2013-11-08 00:43:00,
2013-11-07 18:48:00,37.3,32.3,30.20,WSW,243,7.0,7.0,82,0.00,,,0.00,Wunderground v.1.15,2013-11-08 00:48:00,
2013-11-07 18:54:00,37.3,32.3,30.20,WSW,239,7.0,9.0,82,0.00,,,0.00,Wunderground v.1.15,2013-11-08 00:54:00,
2013-11-07 18:59:00,37.1,32.1,30.21,WSW,238,8.0,9.0,82,0.00,,,0.00,Wunderground v.1.15,2013-11-08 00:59:00,
2013-11-07 19:04:00,36.9,32.2,30.21,WSW,238,8.0,9.0,83,0.00,,,0.00,Wunderground v.1.15,2013-11-08 01:04:00,
2013-11-07 19:09:00,36.9,32.2,30.21,WSW,238,7.0,9.0,83,0.00,,,0.00,Wunderground v.1.15,2013-11-08 01:09:00,
2013-11-07 19:15:00,36.8,32.1,30.21,WSW,238,7.0,7.0,83,0.00,,,0.00,Wunderground v.1.15,2013-11-08 01:15:00,
2013-11-07 19:20:00,36.8,32.1,30.21,WSW,238,7.0,7.0,83,0.00,,,0.00,Wunderground v.1.15,2013-11-08 01:20:00,
2013-11-07 19:25:00,36.8,32.1,30.21,WSW,238,7.0,7.0,83,0.00,,,0.00,Wunderground v.1.15,2013-11-08 01:25:00,
2013-11-07 19:31:00,36.8,32.1,30.20,WSW,238,7.0,7.0,83,0.00,,,0.00,Wunderground v.1.15,2013-11-08 01:31:00,
2013-11-07 19:36:00,36.7,32.0,30.20,WSW,238,7.0,7.0,83,0.00,,,0.00,Wunderground v.1.15,2013-11-08 01:36:00,
2013-11-07 19:42:00,36.7,32.0,30.20,WSW,238,7.0,9.0,83,0.00,,,0.00,Wunderground v.1.15,2013-11-08 01:42:00,
2013-11-07 19:47:00,36.6,31.9,30.20,WSW,238,8.0,9.0,83,0.00,,,0.00,Wunderground v.1.15,2013-11-08 01:47:00,
2013-11-07 19:53:00,36.6,31.9,30.20,WSW,238,7.0,7.0,83,0.00,,,0.00,Wunderground v.1.15,2013-11-08 01:53:00,
2013-11-07 19:59:00,36.5,31.8,30.20,WSW,238,7.0,7.0,83,0.00,,,0.00,Wunderground v.1.15,2013-11-08 01:59:00,
2013-11-07 20:05:00,36.4,32.0,30.20,WSW,238,7.0,8.0,84,0.00,,,0.00,Wunderground v.1.15,2013-11-08 02:05:00,
2013-11-07 20:11:00,36.4,32.0,30.20,WSW,238,7.0,7.0,84,0.00,,,0.00,Wunderground v.1.15,2013-11-08 02:11:00,
2013-11-07 20:17:00,36.4,32.0,30.20,WSW,238,7.0,9.0,84,0.00,,,0.00,Wunderground v.1.15,2013-11-08 02:17:00,
2013-11-07 20:22:00,36.3,31.6,30.20,WSW,238,8.0,9.0,83,0.00,,,0.00,Wunderground v.1.15,2013-11-08 02:22:00,
2013-11-07 20:28:00,36.1,31.4,30.20,WSW,238,8.0,9.0,83,0.00,,,0.00,Wunderground v.1.15,2013-11-08 02:28:00,
2013-11-07 20:34:00,35.7,31.3,30.20,WSW,240,7.0,9.0,84,0.00,,,0.00,Wunderground v.1.15,2013-11-08 02:34:00,
2013-11-07 20:40:00,35.6,31.5,30.20,WSW,244,8.0,8.0,85,0.00,,,0.00,Wunderground v.1.15,2013-11-08 02:40:00,
2013-11-07 20:46:00,35.7,31.6,30.20,WSW,244,8.0,9.0,85,0.00,,,0.00,Wunderground v.1.15,2013-11-08 02:46:00,
2013-11-07 20:51:00,35.8,31.7,30.20,WSW,246,7.0,7.0,85,0.00,,,0.00,Wunderground v.1.15,2013-11-08 02:51:00,
2013-11-07 20:57:00,35.6,31.5,30.20,WSW,258,6.0,7.0,85,0.00,,,0.00,Wunderground v.1.15,2013-11-08 02:57:00,
2013-11-07 21:02:00,35.7,31.6,30.20,WSW,258,7.0,7.0,85,0.00,,,0.00,Wunderground v.1.15,2013-11-08 03:02:00,
2013-11-07 21:07:00,36.1,32.0,30.21,West,266,7.0,10.0,85,0.00,,,0.00,Wunderground v.1.15,2013-11-08 03:07:00,
2013-11-07 21:12:00,36.4,32.0,30.21,WSW,246,7.0,10.0,84,0.00,,,0.00,Wunderground v.1.15,2013-11-08 03:12:00,
2013-11-07 21:17:00,36.7,32.0,30.21,West,263,8.0,10.0,83,0.00,,,0.00,Wunderground v.1.15,2013-11-08 03:17:00,
2013-11-07 21:23:00,36.6,31.9,30.21,West,260,7.0,10.0,83,0.00,,,0.00,Wunderground v.1.15,2013-11-08 03:23:00,
2013-11-07 21:29:00,36.4,31.7,30.21,WSW,254,7.0,10.0,83,0.00,,,0.00,Wunderground v.1.15,2013-11-08 03:29:00,
2013-11-07 21:34:00,36.2,31.5,30.21,WSW,254,7.0,7.0,83,0.00,,,0.00,Wunderground v.1.15,2013-11-08 03:34:00,
2013-11-07 21:40:00,35.8,31.4,30.21,WSW,254,7.0,7.0,84,0.00,,,0.00,Wunderground v.1.15,2013-11-08 03:40:00,
2013-11-07 21:46:00,35.5,31.4,30.21,West,260,6.0,7.0,85,0.00,,,0.00,Wunderground v.1.15,2013-11-08 03:46:00,
2013-11-07 21:51:00,35.3,31.2,30.21,WSW,254,6.0,6.0,85,0.00,,,0.00,Wunderground v.1.15,2013-11-08 03:51:00,
2013-11-07 21:57:00,35.1,31.0,30.21,WSW,257,5.0,6.0,85,0.00,,,0.00,Wunderground v.1.15,2013-11-08 03:57:00,
2013-11-07 22:02:00,35.0,30.9,30.22,West,261,5.0,6.0,85,0.00,,,0.00,Wunderground v.1.15,2013-11-08 04:02:00,
2013-11-07 22:07:00,35.0,31.2,30.22,West,266,4.0,7.0,86,0.00,,,0.00,Wunderground v.1.15,2013-11-08 04:07:00,
2013-11-07 22:13:00,35.0,31.2,30.21,West,259,4.0,6.0,86,0.00,,,0.00,Wunderground v.1.15,2013-11-08 04:13:00,
2013-11-07 22:19:00,35.0,31.2,30.21,WSW,257,5.0,9.0,86,0.00,,,0.00,Wunderground v.1.15,2013-11-08 04:19:00,
2013-11-07 22:24:00,35.0,31.2,30.21,WSW,254,6.0,6.0,86,0.00,,,0.00,Wunderground v.1.15,2013-11-08 04:24:00,
2013-11-07 22:30:00,35.0,31.2,30.21,WSW,258,6.0,6.0,86,0.00,,,0.00,Wunderground v.1.15,2013-11-08 04:30:00,
2013-11-07 22:36:00,34.7,30.9,30.21,West,259,5.0,9.0,86,0.00,,,0.00,Wunderground v.1.15,2013-11-08 04:36:00,
2013-11-07 22:42:00,34.3,30.8,30.21,West,260,5.0,5.0,87,0.00,,,0.00,Wunderground v.1.15,2013-11-08 04:42:00,
2013-11-07 22:47:00,34.1,30.9,30.21,WSW,258,5.0,6.0,88,0.00,,,0.00,Wunderground v.1.15,2013-11-08 04:47:00,
2013-11-07 22:53:00,34.2,31.0,30.21,WSW,250,6.0,7.0,88,0.00,,,0.00,Wunderground v.1.15,2013-11-08 04:53:00,
2013-11-07 22:58:00,34.1,30.9,30.21,WSW,252,5.0,7.0,88,0.00,,,0.00,Wunderground v.1.15,2013-11-08 04:58:00,
2013-11-07 23:01:00,34.0,30.8,30.21,WSW,252,5.0,5.0,88,0.00,,,0.00,Wunderground v.1.15,2013-11-08 05:01:00,
2013-11-07 23:02:00,33.9,30.7,30.21,WSW,252,5.0,5.0,88,0.00,,,0.00,Wunderground v.1.15,2013-11-08 05:02:00,
2013-11-07 23:03:00,33.9,30.7,30.21,WSW,252,5.0,5.0,88,0.00,,,0.00,Wunderground v.1.15,2013-11-08 05:03:00,
2013-11-07 23:08:00,33.6,30.4,30.21,WSW,252,4.0,5.0,88,0.00,,,0.00,Wunderground v.1.15,2013-11-08 05:08:00,
2013-11-07 23:09:00,33.6,30.7,30.21,WSW,252,4.0,5.0,89,0.00,,,0.00,Wunderground v.1.15,2013-11-08 05:09:00,
2013-11-07 23:10:00,33.6,30.7,30.21,WSW,252,4.0,6.0,89,0.00,,,0.00,Wunderground v.1.15,2013-11-08 05:10:00,
2013-11-07 23:11:00,33.6,30.7,30.21,WSW,252,4.0,6.0,89,0.00,,,0.00,Wunderground v.1.15,2013-11-08 05:11:00,
2013-11-07 23:17:00,33.4,30.5,30.21,WSW,252,4.0,6.0,89,0.00,,,0.00,Wunderground v.1.15,2013-11-08 05:17:00,
2013-11-07 23:23:00,33.2,30.3,30.21,WSW,252,4.0,4.0,89,0.00,,,0.00,Wunderground v.1.15,2013-11-08 05:23:00,
2013-11-07 23:28:00,33.0,30.1,30.21,WSW,252,4.0,4.0,89,0.00,,,0.00,Wunderground v.1.15,2013-11-08 05:28:00,
2013-11-07 23:33:00,32.9,30.3,30.21,WSW,252,4.0,4.0,90,0.00,,,0.00,Wunderground v.1.15,2013-11-08 05:33:00,
2013-11-07 23:39:00,33.2,30.6,30.22,WSW,253,4.0,5.0,90,0.00,,,0.00,Wunderground v.1.15,2013-11-08 05:39:00,
2013-11-07 23:45:00,33.4,30.8,30.22,WSW,254,4.0,6.0,90,0.00,,,0.00,Wunderground v.1.15,2013-11-08 05:45:00,
2013-11-07 23:50:00,33.5,30.6,30.22,WSW,254,4.0,4.0,89,0.00,,,0.00,Wunderground v.1.15,2013-11-08 05:50:00,
2013-11-07 23:56:00,33.5,30.6,30.22,WSW,254,4.0,5.0,89,0.00,,,0.00,Wunderground v.1.15,2013-11-08 05:56:00,